RJAA/NRT METAR and TAF weather

Enter ICAO airport designator
Station Type Date Time Source
RJAA METAR 2019/08/24 22:00 UTC NOAA

RJAA 242200Z 01008KT 9999 FEW020 SCT070 BKN110 22/20 Q1009 NOSIG RMK 1CU020 3AC070 7AC110 A2982


Station Type Date Time Source
RJAA Decoded METAR 2019/08/24 22:00 UTC NOAA

Station name not available
Aug 24, 2019 - 06:00 PM EDT / 2019.08.24 2200 UTC
Wind: from the N (010 degrees) at 9 MPH (8 KT):0
Visibility: greater than 7 mile(s):0
Sky conditions: mostly cloudy
Temperature: 71 F (22 C)
Dew Point: 68 F (20 C)
Relative Humidity: 88%
Pressure (altimeter): 29.80 in. Hg (1009 hPa)
ob: RJAA 242200Z 01008KT 9999 FEW020 SCT070 BKN110 22/20 Q1009 NOSIG RMK 1CU020 3AC070 7AC110 A2982
cycle: 22

Station Type Date Time Source
RJAA TAF 2019/08/24 18:14 UTC NOAA

TAF RJAA 241707Z 2418/2600 04010KT 9999 FEW020 SCT040
BECMG 2503/2505 13008KT
BECMG 2512/2515 04006KT

Example: see airport list